Time;durP1;ratioP1;P1;durP2;ratioP2;P2;SDS_P1;SDS_P2;PMS_P1;PMS_P2;Temp;Humidity;BMP_temperature;BMP_pressure;BME280_temperature;BME280_humidity;BME280_pressure;Samples;Min_cycle;Max_cycle;Signal;HPM_P1;HPM_P2
2020/12/18 03:47:44;;;;;;;20.40;10.65;;;2.10;99.90;;;;;;5256786;23;94085;-84
2020/12/18 03:50:10;;;;;;;19.95;11.00;;;2.00;99.90;;;;;;4949585;28;91904;-85
2020/12/18 03:52:35;;;;;;;22.45;12.00;;;1.90;99.90;;;;;;4949353;28;91884;-85
2020/12/18 03:55:01;;;;;;;22.60;13.73;;;1.80;99.90;;;;;;4949285;28;93155;-85
2020/12/18 03:57:27;;;;;;;19.67;11.40;;;1.80;99.90;;;;;;4949270;28;93759;-85
2020/12/18 03:59:52;;;;;;;19.60;12.27;;;1.60;99.90;;;;;;4949330;28;92028;-85
2020/12/18 04:02:18;;;;;;;23.33;12.65;;;1.70;99.90;;;;;;4948980;28;91940;-84
2020/12/18 04:04:44;;;;;;;25.38;13.63;;;1.60;99.90;;;;;;4945490;28;92256;-85
2020/12/18 04:07:13;;;;;;;25.38;13.05;;;1.50;99.90;;;;;;4946998;28;92188;-84
2020/12/18 04:09:40;;;;;;;16.83;11.35;;;1.50;99.90;;;;;;4947379;28;92018;-84
2020/12/18 04:12:06;;;;;;;22.52;12.77;;;1.60;99.90;;;;;;4949393;28;91082;-84
2020/12/18 04:14:32;;;;;;;24.60;12.18;;;1.50;99.90;;;;;;4948523;28;91984;-85
2020/12/18 04:16:57;;;;;;;24.30;13.00;;;1.40;99.90;;;;;;4948868;28;92489;-85
2020/12/18 04:19:23;;;;;;;24.08;12.52;;;1.40;99.90;;;;;;4945788;28;92779;-84
2020/12/18 04:21:49;;;;;;;23.50;14.45;;;1.70;99.90;;;;;;4947144;28;92049;-85
2020/12/18 04:24:15;;;;;;;20.15;12.88;;;1.30;99.90;;;;;;4949820;28;92270;-85
2020/12/18 04:26:40;;;;;;;22.27;12.25;;;0.90;99.90;;;;;;4949699;28;92014;-81
2020/12/18 04:29:06;;;;;;;19.63;10.32;;;1.20;99.90;;;;;;4945787;28;92075;-86
2020/12/18 04:31:32;;;;;;;18.80;11.38;;;1.20;99.90;;;;;;4944045;28;92356;-84
2020/12/18 04:33:57;;;;;;;21.20;11.75;;;1.20;99.90;;;;;;4952584;28;92261;-84
2020/12/18 04:36:23;;;;;;;23.02;12.43;;;1.20;99.90;;;;;;4960399;28;91225;-83
2020/12/18 04:38:49;;;;;;;24.08;11.18;;;1.20;99.90;;;;;;4958799;28;91426;-83
2020/12/18 04:41:17;;;;;;;24.73;13.63;;;1.20;99.90;;;;;;4959462;28;91621;-83
2020/12/18 04:43:43;;;;;;;19.95;11.35;;;1.20;99.90;;;;;;4958290;28;93140;-82
2020/12/18 04:46:10;;;;;;;26.83;12.63;;;1.20;99.90;;;;;;4935990;28;96305;-79
2020/12/18 04:48:36;;;;;;;23.20;12.13;;;1.10;99.90;;;;;;4944548;28;91909;-81
2020/12/18 04:51:03;;;;;;;23.88;12.85;;;1.20;99.90;;;;;;4942087;28;91302;-81
2020/12/18 04:53:33;;;;;;;24.67;12.07;;;1.20;99.90;;;;;;4943512;28;92263;-81
2020/12/18 04:56:08;;;;;;;28.15;14.07;;;1.20;99.90;;;;;;4948542;28;91975;-82
2020/12/18 04:58:35;;;;;;;21.67;11.68;;;1.20;99.90;;;;;;4947302;28;92034;-82
2020/12/18 05:01:02;;;;;;;27.70;13.70;;;1.30;99.90;;;;;;4948493;28;90799;-82
2020/12/18 05:03:33;;;;;;;38.45;14.30;;;1.40;99.90;;;;;;4927661;28;92082;-82
2020/12/18 05:06:03;;;;;;;27.38;13.05;;;1.50;99.90;;;;;;4936836;28;92495;-82
2020/12/18 05:08:32;;;;;;;19.63;12.13;;;1.60;99.90;;;;;;4945919;28;93106;-82
2020/12/18 05:10:58;;;;;;;36.35;14.13;;;1.60;99.90;;;;;;4955253;28;91849;-82
2020/12/18 05:13:24;;;;;;;37.50;14.27;;;1.70;99.90;;;;;;4954486;28;92268;-82
2020/12/18 05:15:51;;;;;;;32.42;13.32;;;1.80;99.90;;;;;;4941084;28;91874;-82
2020/12/18 05:18:21;;;;;;;85.32;18.13;;;1.90;99.90;;;;;;4955810;28;91277;-82
2020/12/18 05:20:47;;;;;;;85.18;19.00;;;1.90;99.90;;;;;;4949061;28;92061;-81
2020/12/18 05:23:13;;;;;;;37.53;12.93;;;2.10;99.90;;;;;;4930865;28;92854;-82
2020/12/18 05:25:39;;;;;;;30.90;12.93;;;2.20;99.90;;;;;;4938250;28;91238;-83
2020/12/18 05:28:05;;;;;;;44.08;13.55;;;2.30;99.90;;;;;;4932199;28;91965;-81
2020/12/18 05:30:33;;;;;;;37.85;13.77;;;2.10;99.90;;;;;;4939276;28;91857;-83
2020/12/18 05:32:59;;;;;;;40.22;13.10;;;2.40;99.90;;;;;;4946887;28;92859;-83
2020/12/18 05:35:25;;;;;;;57.15;13.82;;;2.50;99.90;;;;;;4944179;28;93489;-83
2020/12/18 05:37:51;;;;;;;23.10;11.73;;;2.50;99.90;;;;;;4947512;28;91978;-83
2020/12/18 05:40:17;;;;;;;19.27;11.60;;;2.60;99.90;;;;;;4947473;28;92064;-83
2020/12/18 05:42:45;;;;;;;30.10;13.45;;;2.60;99.90;;;;;;4940601;28;91963;-81
2020/12/18 05:45:19;;;;;;;32.25;13.10;;;2.60;99.90;;;;;;4930061;28;92413;-83
2020/12/18 05:47:55;;;;;;;30.48;13.40;;;2.70;99.90;;;;;;4939133;28;91859;-86
2020/12/18 05:50:21;;;;;;;46.00;13.38;;;2.70;99.90;;;;;;4943961;28;90518;-84
2020/12/18 05:53:04;;;;;;;31.90;12.77;;;2.70;99.90;;;;;;4945059;28;92034;-83
2020/12/18 05:55:36;;;;;;;44.63;12.52;;;2.70;99.90;;;;;;4946091;28;92428;-82
2020/12/18 05:58:02;;;;;;;36.53;14.13;;;2.70;99.90;;;;;;4949451;28;92587;-85
2020/12/18 06:00:28;;;;;;;24.60;13.20;;;2.80;99.90;;;;;;4943597;28;91292;-83
2020/12/18 06:02:55;;;;;;;25.55;13.07;;;2.70;99.90;;;;;;4948655;28;91586;-84
2020/12/18 06:05:24;;;;;;;17.42;11.48;;;3.30;99.90;;;;;;4945914;28;92944;-81
2020/12/18 06:07:51;;;;;;;22.55;12.18;;;2.70;99.90;;;;;;4953125;28;91569;-84
2020/12/18 06:10:20;;;;;;;25.58;11.55;;;2.70;99.90;;;;;;4945043;28;91637;-82
2020/12/18 06:12:48;;;;;;;40.88;13.88;;;2.60;99.90;;;;;;4929054;28;93600;-82
2020/12/18 06:15:16;;;;;;;49.72;15.50;;;3.10;99.90;;;;;;4950167;28;92219;-81
2020/12/18 06:17:46;;;;;;;56.58;15.30;;;2.70;99.90;;;;;;4954242;28;91420;-83
2020/12/18 06:20:15;;;;;;;64.00;16.73;;;2.70;99.90;;;;;;4950173;28;91821;-83
2020/12/18 06:23:05;;;;;;;39.30;14.57;;;2.80;99.90;;;;;;4953343;28;94083;-83
2020/12/18 06:25:31;;;;;;;61.30;17.58;;;2.80;99.90;;;;;;4945703;28;92180;-80
2020/12/18 06:28:02;;;;;;;32.83;13.20;;;3.00;99.90;;;;;;4952578;28;91974;-83
2020/12/18 06:30:29;;;;;;;30.63;13.23;;;2.60;99.90;;;;;;4942619;28;92213;-83
2020/12/18 06:32:55;;;;;;;45.97;13.90;;;2.90;99.90;;;;;;4948587;28;92523;-82
2020/12/18 06:35:26;;;;;;;66.55;16.05;;;2.90;99.90;;;;;;4938810;28;92982;-84
2020/12/18 06:37:52;;;;;;;39.45;14.02;;;3.00;99.90;;;;;;4934209;28;91951;-83
2020/12/18 06:40:32;;;;;;;52.78;16.70;;;3.20;99.90;;;;;;4940706;28;91716;-83
2020/12/18 06:42:59;;;;;;;34.33;15.23;;;3.20;99.90;;;;;;4943711;28;92144;-83
2020/12/18 06:45:25;;;;;;;77.03;17.25;;;3.10;99.90;;;;;;4936504;28;92280;-84
2020/12/18 06:47:52;;;;;;;53.25;15.32;;;3.20;99.90;;;;;;4929339;28;93018;-83
2020/12/18 06:50:19;;;;;;;40.60;15.52;;;3.30;99.90;;;;;;4944476;28;91566;-83
2020/12/18 06:52:52;;;;;;;26.27;14.50;;;3.40;99.90;;;;;;4934978;28;91961;-83
2020/12/18 06:55:30;;;;;;;108.30;26.45;;;3.40;99.90;;;;;;4932046;28;92440;-81
2020/12/18 06:58:08;;;;;;;53.13;19.48;;;3.60;99.90;;;;;;4929770;28;92106;-82
2020/12/18 07:00:42;;;;;;;36.05;15.38;;;3.30;99.90;;;;;;4937470;28;91909;-83
2020/12/18 07:03:08;;;;;;;26.75;14.50;;;3.40;99.90;;;;;;4943684;28;92285;-82
2020/12/18 07:05:35;;;;;;;68.72;20.42;;;3.40;99.90;;;;;;4930908;28;91331;-81
2020/12/18 07:08:07;;;;;;;52.58;17.05;;;3.30;99.90;;;;;;4925779;28;91692;-82
2020/12/18 07:10:39;;;;;;;42.92;16.70;;;3.30;99.90;;;;;;4938731;28;91905;-82
2020/12/18 07:13:07;;;;;;;370.38;35.75;;;3.40;99.90;;;;;;4944342;28;93180;-83
2020/12/18 07:15:45;;;;;;;26.98;15.27;;;3.50;99.90;;;;;;4945019;28;92983;-83
2020/12/18 07:18:31;;;;;;;22.80;11.80;;;3.30;99.90;;;;;;4938809;28;92108;-83
2020/12/18 07:21:09;;;;;;;41.38;15.98;;;3.20;99.90;;;;;;4945205;28;92389;-85
2020/12/18 07:23:38;;;;;;;31.63;14.70;;;3.20;99.90;;;;;;4949529;28;92413;-87
2020/12/18 07:26:05;;;;;;;34.53;15.73;;;3.20;99.90;;;;;;4942810;28;91489;-85
2020/12/18 07:28:32;;;;;;;25.90;13.10;;;3.20;99.90;;;;;;4951635;28;91910;-80
2020/12/18 07:30:59;;;;;;;26.27;14.30;;;3.30;99.90;;;;;;4946533;28;91272;-85
2020/12/18 07:33:25;;;;;;;40.83;16.92;;;3.30;99.90;;;;;;4932215;28;92466;-81
2020/12/18 07:35:53;;;;;;;29.17;15.30;;;3.30;99.90;;;;;;4944855;28;91750;-80
2020/12/18 07:38:28;;;;;;;34.40;15.75;;;3.30;99.90;;;;;;4940215;28;92814;-78
2020/12/18 07:41:06;;;;;;;33.50;15.90;;;3.40;99.90;;;;;;4946561;28;92011;-78
2020/12/18 07:43:34;;;;;;;28.05;14.00;;;3.50;99.90;;;;;;4947609;28;92167;-79
2020/12/18 07:46:07;;;;;;;25.45;14.82;;;3.60;99.90;;;;;;4930482;28;92025;-79
2020/12/18 07:48:37;;;;;;;33.35;16.02;;;3.90;99.90;;;;;;4929868;28;92060;-82
2020/12/18 07:51:08;;;;;;;33.50;14.88;;;3.80;99.90;;;;;;4927116;28;91236;-80
2020/12/18 07:53:42;;;;;;;41.03;16.80;;;3.70;99.90;;;;;;4924510;28;92743;-79
2020/12/18 07:56:10;;;;;;;31.65;14.30;;;3.70;99.90;;;;;;4916114;28;92001;-80
2020/12/18 07:58:46;;;;;;;25.35;13.50;;;3.80;99.90;;;;;;4923047;28;91858;-80
2020/12/18 08:01:21;;;;;;;28.15;15.20;;;3.80;99.90;;;;;;4925705;28;92041;-80
2020/12/18 08:03:58;;;;;;;34.85;16.25;;;3.80;99.90;;;;;;4919033;28;93634;-79
2020/12/18 08:06:24;;;;;;;34.00;16.02;;;3.70;99.90;;;;;;4916218;28;92407;-78
2020/12/18 08:09:07;;;;;;;31.50;14.63;;;3.70;99.90;;;;;;4919590;28;92700;-77
2020/12/18 08:11:36;;;;;;;29.55;14.45;;;3.70;99.90;;;;;;4915010;28;91916;-78
2020/12/18 08:14:05;;;;;;;31.30;14.70;;;3.50;99.90;;;;;;4917670;28;92058;-81
2020/12/18 08:16:33;;;;;;;30.73;16.48;;;3.50;99.90;;;;;;4925356;28;91919;-83
2020/12/18 08:19:02;;;;;;;32.78;14.90;;;3.60;99.90;;;;;;4920122;28;92009;-78
2020/12/18 08:21:36;;;;;;;28.83;14.55;;;3.70;99.90;;;;;;4923922;28;91384;-81
2020/12/18 08:24:14;;;;;;;25.27;12.90;;;3.80;99.90;;;;;;4902834;28;94854;-79
2020/12/18 08:27:12;;;;;;;26.40;13.20;;;4.00;99.90;;;;;;4921612;28;91827;-79
2020/12/18 08:29:39;;;;;;;22.60;12.65;;;4.40;99.90;;;;;;4921253;28;92709;-78
2020/12/18 08:32:07;;;;;;;24.48;14.25;;;4.80;99.90;;;;;;4917454;28;91670;-79
2020/12/18 08:34:34;;;;;;;24.73;12.85;;;5.20;99.90;;;;;;4916004;28;93171;-78
2020/12/18 08:37:01;;;;;;;20.00;13.82;;;5.90;99.90;;;;;;4923025;28;91939;-78
2020/12/18 08:39:34;;;;;;;23.27;14.00;;;6.40;99.90;;;;;;4921005;28;91935;-77
2020/12/18 08:42:01;;;;;;;23.83;14.05;;;6.90;98.50;;;;;;4915971;28;91905;-77
2020/12/18 08:44:28;;;;;;;28.27;14.82;;;7.30;96.70;;;;;;4924482;28;92226;-76
2020/12/18 08:46:56;;;;;;;28.13;14.65;;;7.80;94.80;;;;;;4930189;28;92997;-77
2020/12/18 08:49:24;;;;;;;23.38;13.32;;;8.40;93.20;;;;;;4938105;28;92134;-76
2020/12/18 08:51:52;;;;;;;28.25;14.50;;;8.40;91.70;;;;;;4940655;28;91997;-78
2020/12/18 08:54:20;;;;;;;25.00;13.98;;;8.50;90.80;;;;;;4933874;28;94133;-77
2020/12/18 08:56:46;;;;;;;20.75;13.73;;;8.40;90.20;;;;;;4941981;28;92974;-77
2020/12/18 08:59:15;;;;;;;27.15;15.55;;;8.30;89.10;;;;;;4941918;28;91860;-76
2020/12/18 09:01:49;;;;;;;28.10;16.63;;;8.10;87.20;;;;;;4944001;28;91852;-78
2020/12/18 09:04:15;;;;;;;26.30;15.40;;;8.00;87.40;;;;;;4938025;28;92322;-76
2020/12/18 09:06:50;;;;;;;26.42;15.10;;;7.80;88.10;;;;;;4932607;28;92031;-77
2020/12/18 09:09:17;;;;;;;31.80;15.98;;;8.20;87.40;;;;;;4940676;28;91842;-76
2020/12/18 09:11:49;;;;;;;27.65;16.10;;;8.60;84.60;;;;;;4936315;28;91316;-77
2020/12/18 09:14:28;;;;;;;27.88;15.30;;;8.90;83.60;;;;;;4932784;28;92507;-78
2020/12/18 09:16:57;;;;;;;23.23;14.48;;;9.00;80.40;;;;;;4937811;28;91924;-76
2020/12/18 09:19:23;;;;;;;24.02;15.27;;;8.90;80.00;;;;;;4941700;28;92708;-78
2020/12/18 09:21:49;;;;;;;27.65;16.02;;;8.70;80.00;;;;;;4942656;28;91867;-78
2020/12/18 09:24:19;;;;;;;22.77;14.45;;;8.50;81.00;;;;;;4942124;28;92165;-76
2020/12/18 09:26:46;;;;;;;20.37;13.77;;;8.40;81.50;;;;;;4937285;28;93129;-78
2020/12/18 09:29:16;;;;;;;20.80;12.77;;;8.40;82.70;;;;;;4943775;28;91495;-77
2020/12/18 09:31:42;;;;;;;21.57;15.20;;;8.70;82.70;;;;;;4918256;28;92447;-78
2020/12/18 09:34:16;;;;;;;24.70;14.57;;;8.80;81.50;;;;;;4943500;28;93338;-76
2020/12/18 09:36:42;;;;;;;21.83;14.82;;;8.90;80.60;;;;;;4937558;28;91256;-76
2020/12/18 09:39:08;;;;;;;20.65;12.75;;;9.20;80.50;;;;;;4936020;28;91923;-77
2020/12/18 09:41:34;;;;;;;23.38;13.88;;;9.30;79.70;;;;;;4937638;28;91958;-77
2020/12/18 09:44:00;;;;;;;22.30;13.93;;;9.30;79.60;;;;;;4940926;28;96252;-78
2020/12/18 09:46:26;;;;;;;20.58;12.88;;;9.10;79.40;;;;;;4937672;28;92109;-77
2020/12/18 09:48:51;;;;;;;19.58;12.95;;;8.90;80.80;;;;;;4940600;28;92077;-76
2020/12/18 09:51:18;;;;;;;17.65;12.18;;;8.80;81.50;;;;;;4941068;28;92055;-77
2020/12/18 09:53:48;;;;;;;18.08;11.07;;;8.70;82.00;;;;;;4946458;28;92303;-77
2020/12/18 09:56:14;;;;;;;15.25;10.63;;;8.50;82.90;;;;;;4931277;28;91937;-77
2020/12/18 09:58:40;;;;;;;16.98;10.18;;;8.30;82.80;;;;;;4935997;28;92892;-77
2020/12/18 10:01:06;;;;;;;16.85;10.85;;;8.10;84.10;;;;;;4940017;28;91338;-77
2020/12/18 10:03:32;;;;;;;16.50;10.80;;;7.90;85.20;;;;;;4938971;28;92327;-77
2020/12/18 10:05:58;;;;;;;14.30;9.95;;;7.80;86.60;;;;;;4935974;28;92142;-77
2020/12/18 10:08:23;;;;;;;18.40;11.18;;;7.80;87.70;;;;;;4937029;28;92987;-76
2020/12/18 10:10:49;;;;;;;16.63;11.00;;;7.70;88.50;;;;;;4939969;28;91629;-74
2020/12/18 10:13:15;;;;;;;17.48;11.43;;;7.70;89.20;;;;;;4937681;28;91638;-77
2020/12/18 10:15:41;;;;;;;20.48;11.52;;;7.60;89.70;;;;;;4939669;28;92008;-77
2020/12/18 10:18:07;;;;;;;19.33;11.57;;;7.60;90.30;;;;;;4937134;28;92071;-77
2020/12/18 10:20:33;;;;;;;14.35;10.73;;;7.60;90.50;;;;;;4933492;28;92312;-76
2020/12/18 10:22:59;;;;;;;15.65;10.43;;;7.60;90.70;;;;;;4928552;28;91570;-76
2020/12/18 10:25:25;;;;;;;19.02;11.75;;;7.70;91.00;;;;;;4940927;28;91265;-76
2020/12/18 10:27:50;;;;;;;18.75;12.20;;;7.80;91.20;;;;;;4934846;28;92004;-78
2020/12/18 10:30:16;;;;;;;20.98;13.23;;;7.80;90.90;;;;;;4931250;28;91536;-80
2020/12/18 10:32:42;;;;;;;23.88;13.38;;;7.90;90.80;;;;;;4940309;28;93220;-79
2020/12/18 10:35:09;;;;;;;24.83;13.52;;;8.00;91.00;;;;;;4941999;28;93267;-78
2020/12/18 10:37:35;;;;;;;22.95;13.05;;;;;;;;;;4930615;28;91958;-80
2020/12/18 10:40:02;;;;;;;25.85;15.10;;;8.20;90.00;;;;;;4943718;28;91633;-81
2020/12/18 10:42:28;;;;;;;26.60;15.00;;;8.20;90.30;;;;;;4935499;28;92013;-81
2020/12/18 10:44:54;;;;;;;24.75;13.70;;;8.20;89.70;;;;;;4932286;28;91867;-81
2020/12/18 10:47:19;;;;;;;25.60;14.43;;;8.10;90.80;;;;;;4941178;28;92346;-81
2020/12/18 10:49:45;;;;;;;25.95;13.93;;;8.20;90.40;;;;;;4943821;28;91206;-80
2020/12/18 10:52:11;;;;;;;23.40;13.90;;;8.40;90.30;;;;;;4937255;28;92289;-77
2020/12/18 10:54:37;;;;;;;23.38;14.40;;;8.70;90.00;;;;;;4933217;28;91425;-79
2020/12/18 10:57:02;;;;;;;27.40;15.70;;;8.90;88.10;;;;;;4932395;28;92321;-80
2020/12/18 10:59:31;;;;;;;30.58;18.13;;;8.90;87.70;;;;;;4937235;28;93111;-84
2020/12/18 11:01:59;;;;;;;28.05;17.42;;;9.00;86.80;;;;;;4923637;28;94825;-80
2020/12/18 11:04:26;;;;;;;27.00;16.40;;;8.80;87.20;;;;;;4927172;28;92120;-79
2020/12/18 11:06:52;;;;;;;27.77;16.08;;;8.80;88.00;;;;;;4936362;28;91988;-81
2020/12/18 11:09:18;;;;;;;25.05;15.13;;;8.90;88.20;;;;;;4931777;28;91355;-81
2020/12/18 11:11:45;;;;;;;23.65;15.25;;;9.00;87.60;;;;;;4941545;28;92023;-80
2020/12/18 11:14:11;;;;;;;28.30;16.25;;;9.00;87.50;;;;;;4939356;28;91241;-78
2020/12/18 11:16:37;;;;;;;27.67;15.77;;;8.90;87.40;;;;;;4939860;28;92056;-79
2020/12/18 11:19:04;;;;;;;30.88;15.75;;;8.90;87.50;;;;;;4941747;28;92632;-80
2020/12/18 11:21:31;;;;;;;28.38;15.77;;;8.90;87.70;;;;;;4929510;28;93793;-80
2020/12/18 11:23:57;;;;;;;26.80;16.00;;;8.90;88.00;;;;;;4941331;28;93033;-83
2020/12/18 11:26:24;;;;;;;26.45;15.70;;;9.00;87.80;;;;;;4938111;28;92074;-83
2020/12/18 11:28:50;;;;;;;24.95;15.32;;;8.90;86.70;;;;;;4939101;28;91879;-83
2020/12/18 11:31:16;;;;;;;29.20;16.70;;;9.00;86.50;;;;;;4937253;28;92634;-82
2020/12/18 11:33:42;;;;;;;26.83;15.80;;;8.90;87.20;;;;;;4941719;28;92964;-83
2020/12/18 11:36:08;;;;;;;29.10;15.93;;;8.90;87.30;;;;;;4941430;28;92020;-81
2020/12/18 11:38:34;;;;;;;34.33;18.20;;;8.80;87.60;;;;;;4939294;28;91499;-82
2020/12/18 11:40:59;;;;;;;35.80;18.42;;;8.90;87.80;;;;;;4944145;28;92036;-82
2020/12/18 11:43:25;;;;;;;30.85;17.52;;;9.00;87.50;;;;;;4933034;28;92157;-83
2020/12/18 11:45:51;;;;;;;27.85;16.73;;;9.00;87.60;;;;;;4944081;28;92891;-83
2020/12/18 11:48:17;;;;;;;26.17;15.30;;;9.10;86.70;;;;;;4939854;28;92041;-81
2020/12/18 11:50:42;;;;;;;20.42;13.35;;;9.00;86.60;;;;;;4934258;28;92880;-79
2020/12/18 11:53:09;;;;;;;23.98;14.23;;;9.10;86.10;;;;;;4939280;28;92881;-79
2020/12/18 11:55:35;;;;;;;27.30;15.55;;;9.10;86.00;;;;;;4942674;28;92098;-77
2020/12/18 11:58:01;;;;;;;28.88;16.67;;;9.10;86.00;;;;;;4939602;28;92198;-79
2020/12/18 12:00:27;;;;;;;26.23;16.00;;;9.00;85.80;;;;;;4934948;28;92180;-79
2020/12/18 12:02:53;;;;;;;23.23;14.57;;;9.00;87.20;;;;;;4937604;28;93206;-79
2020/12/18 12:05:21;;;;;;;25.08;16.50;;;9.00;88.00;;;;;;4933704;28;91947;-80
2020/12/18 12:07:47;;;;;;;24.27;14.90;;;9.00;88.50;;;;;;4942301;28;92085;-79
2020/12/18 12:10:17;;;;;;;25.13;15.10;;;8.90;88.40;;;;;;4953574;28;94293;-77
2020/12/18 12:12:43;;;;;;;23.05;14.73;;;8.70;89.50;;;;;;4936366;28;94293;-80
2020/12/18 12:15:10;;;;;;;25.65;15.57;;;8.60;89.80;;;;;;4943377;28;92947;-79
2020/12/18 12:17:36;;;;;;;29.10;15.27;;;8.40;90.40;;;;;;4942867;28;92006;-80
2020/12/18 12:20:02;;;;;;;24.58;15.02;;;8.20;90.80;;;;;;4941311;28;92481;-79
2020/12/18 12:22:28;;;;;;;27.15;15.15;;;8.10;91.20;;;;;;4932798;28;92045;-81
2020/12/18 12:24:55;;;;;;;25.55;15.52;;;7.90;92.00;;;;;;4942748;28;92143;-81
2020/12/18 12:27:24;;;;;;;21.45;13.45;;;7.80;92.30;;;;;;4929327;28;91385;-80
2020/12/18 12:29:50;;;;;;;21.80;14.63;;;7.80;92.60;;;;;;4932812;28;93080;-77
2020/12/18 12:32:17;;;;;;;23.73;14.82;;;7.80;92.90;;;;;;4936814;28;92033;-80
2020/12/18 12:34:42;;;;;;;24.15;14.30;;;7.80;93.00;;;;;;4929439;28;92821;-79
2020/12/18 12:37:09;;;;;;;24.88;15.77;;;7.80;93.40;;;;;;4933866;28;92104;-80
2020/12/18 12:39:35;;;;;;;26.80;16.27;;;7.70;93.90;;;;;;4941671;28;91920;-80
2020/12/18 12:42:01;;;;;;;28.25;17.02;;;7.80;94.00;;;;;;4942243;28;91962;-79
2020/12/18 12:44:28;;;;;;;24.55;14.98;;;7.80;94.30;;;;;;4936357;28;92179;-80
2020/12/18 12:46:54;;;;;;;28.08;15.60;;;7.70;94.60;;;;;;4945425;28;91749;-81
2020/12/18 12:49:20;;;;;;;26.45;15.85;;;7.70;94.70;;;;;;4936114;28;92789;-77
2020/12/18 12:51:45;;;;;;;23.10;14.73;;;7.60;95.00;;;;;;4939887;28;92728;-79
2020/12/18 12:54:11;;;;;;;26.50;15.57;;;7.60;95.10;;;;;;4940902;28;91945;-81
2020/12/18 12:56:36;;;;;;;25.83;16.30;;;7.60;95.40;;;;;;4915089;28;92477;-80
2020/12/18 12:59:02;;;;;;;25.40;15.20;;;7.50;95.70;;;;;;4933408;28;93073;-80
2020/12/18 13:01:32;;;;;;;26.45;15.95;;;7.40;96.20;;;;;;4939928;28;93029;-79
2020/12/18 13:03:58;;;;;;;22.27;13.20;;;7.40;96.40;;;;;;4934019;28;92106;-79
2020/12/18 13:06:24;;;;;;;22.40;12.88;;;7.40;96.70;;;;;;4931847;28;92037;-79
2020/12/18 13:08:50;;;;;;;22.13;13.73;;;7.30;97.20;;;;;;4927718;28;92109;-78
2020/12/18 13:11:16;;;;;;;26.77;14.05;;;7.30;97.60;;;;;;4936887;28;92158;-78
2020/12/18 13:13:42;;;;;;;22.80;13.68;;;7.30;97.90;;;;;;4940458;28;91692;-79
2020/12/18 13:16:08;;;;;;;25.60;14.52;;;7.30;98.80;;;;;;4936768;28;91149;-79
2020/12/18 13:18:34;;;;;;;20.83;13.10;;;7.20;99.10;;;;;;4930166;28;91990;-80
2020/12/18 13:21:00;;;;;;;21.48;13.55;;;7.20;99.40;;;;;;4939605;28;91950;-80
2020/12/18 13:23:26;;;;;;;24.10;14.40;;;7.20;99.40;;;;;;4933805;28;93805;-80
2020/12/18 13:25:51;;;;;;;25.70;14.82;;;7.20;99.80;;;;;;4941719;28;92187;-81
2020/12/18 13:28:17;;;;;;;22.77;13.13;;;7.10;99.60;;;;;;4936655;28;92370;-80
2020/12/18 13:30:43;;;;;;;22.63;13.68;;;7.00;99.90;;;;;;4914397;28;92706;-78
2020/12/18 13:33:10;;;;;;;23.15;14.32;;;7.10;99.90;;;;;;4941012;28;92011;-79
2020/12/18 13:35:35;;;;;;;25.83;14.55;;;7.00;99.80;;;;;;4942085;28;92119;-80
2020/12/18 13:38:02;;;;;;;24.45;14.20;;;6.90;99.90;;;;;;4942002;28;92609;-80
2020/12/18 13:40:27;;;;;;;27.52;14.68;;;6.90;99.90;;;;;;4940089;28;92929;-81
2020/12/18 13:42:53;;;;;;;29.10;16.55;;;6.90;99.90;;;;;;4939792;28;92088;-79
2020/12/18 13:45:19;;;;;;;25.00;14.95;;;6.90;99.90;;;;;;4939565;28;92105;-79
2020/12/18 13:47:45;;;;;;;27.00;14.70;;;7.00;99.90;;;;;;4937782;28;93244;-80
2020/12/18 13:50:11;;;;;;;27.33;14.52;;;7.00;99.90;;;;;;4934119;28;93631;-83
2020/12/18 13:52:37;;;;;;;23.02;14.07;;;7.00;99.90;;;;;;4942965;28;92041;-81
2020/12/18 13:55:04;;;;;;;25.42;14.05;;;7.10;99.90;;;;;;4941160;28;91968;-82
2020/12/18 13:57:30;;;;;;;24.30;13.77;;;7.00;99.90;;;;;;4936741;28;92928;-81
2020/12/18 13:59:56;;;;;;;23.85;12.82;;;7.00;99.90;;;;;;4936831;28;92616;-78
2020/12/18 14:02:22;;;;;;;25.58;13.57;;;6.90;99.90;;;;;;4937905;28;91884;-82
2020/12/18 14:04:49;;;;;;;23.33;13.65;;;6.80;99.90;;;;;;4938466;28;91203;-80
2020/12/18 14:07:15;;;;;;;25.13;13.50;;;6.80;99.90;;;;;;4944423;28;93248;-80
2020/12/18 14:09:41;;;;;;;19.63;12.80;;;6.70;99.90;;;;;;4948754;28;91926;-81
2020/12/18 14:12:08;;;;;;;20.13;12.07;;;6.70;99.90;;;;;;4942303;28;93105;-81
2020/12/18 14:14:33;;;;;;;27.52;13.23;;;6.60;99.90;;;;;;4949355;28;91768;-80
2020/12/18 14:16:59;;;;;;;21.98;12.10;;;6.60;99.90;;;;;;4949704;28;91989;-79
2020/12/18 14:19:25;;;;;;;22.45;13.48;;;6.50;99.90;;;;;;4942683;28;92424;-81
2020/12/18 14:21:51;;;;;;;22.00;12.25;;;6.50;99.90;;;;;;4941482;28;92419;-80
2020/12/18 14:24:18;;;;;;;22.73;13.20;;;6.50;99.90;;;;;;4931324;28;91581;-79
2020/12/18 14:26:44;;;;;;;24.75;14.57;;;6.50;99.90;;;;;;4939174;28;92331;-79
2020/12/18 14:29:09;;;;;;;23.95;14.35;;;6.40;99.90;;;;;;4941138;28;91350;-81
2020/12/18 14:31:35;;;;;;;22.15;14.05;;;6.40;99.90;;;;;;4942942;28;91865;-80
2020/12/18 14:34:01;;;;;;;23.70;14.18;;;6.30;99.90;;;;;;4940628;28;91851;-80
2020/12/18 14:36:27;;;;;;;29.42;14.02;;;6.30;99.90;;;;;;4937126;28;92921;-79
2020/12/18 14:38:53;;;;;;;28.42;16.63;;;6.30;99.90;;;;;;4940547;28;94031;-78
2020/12/18 14:41:18;;;;;;;26.23;15.13;;;6.20;99.90;;;;;;4930578;28;91902;-80
2020/12/18 14:43:44;;;;;;;26.65;14.90;;;6.20;99.90;;;;;;4934919;28;92037;-79
2020/12/18 14:46:10;;;;;;;36.28;20.80;;;6.20;99.90;;;;;;4938760;28;93193;-80
2020/12/18 14:48:35;;;;;;;33.00;18.52;;;6.10;99.90;;;;;;4934656;28;92822;-79
2020/12/18 14:51:01;;;;;;;29.02;14.80;;;6.10;99.90;;;;;;4943899;28;91981;-80
2020/12/18 14:53:27;;;;;;;27.42;14.55;;;6.10;99.90;;;;;;4943331;28;90989;-79
2020/12/18 14:55:52;;;;;;;27.95;14.05;;;6.10;99.90;;;;;;4930402;28;92550;-79
2020/12/18 14:58:18;;;;;;;28.77;15.20;;;6.10;99.90;;;;;;4937098;28;91990;-80
2020/12/18 15:00:44;;;;;;;24.13;13.23;;;6.00;99.90;;;;;;4938862;28;92896;-79
2020/12/18 15:03:10;;;;;;;31.80;15.00;;;6.00;99.90;;;;;;4935477;28;92074;-80
2020/12/18 15:05:36;;;;;;;24.95;13.48;;;5.90;99.90;;;;;;4941517;28;92019;-79
2020/12/18 15:08:02;;;;;;;27.52;15.05;;;5.90;99.90;;;;;;4940021;28;91767;-80
2020/12/18 15:10:29;;;;;;;30.67;15.95;;;5.80;99.90;;;;;;4936199;28;91752;-79
2020/12/18 15:12:54;;;;;;;29.98;15.07;;;5.60;99.90;;;;;;4926974;28;91891;-79
2020/12/18 15:15:20;;;;;;;35.88;15.98;;;5.60;99.90;;;;;;4943029;28;92269;-79
2020/12/18 15:17:46;;;;;;;31.55;15.35;;;5.60;99.90;;;;;;4941051;28;91883;-78
2020/12/18 15:20:12;;;;;;;40.83;16.25;;;5.60;99.90;;;;;;4932519;28;91884;-79
2020/12/18 15:22:40;;;;;;;60.70;17.27;;;5.50;99.90;;;;;;4938187;28;92037;-80
2020/12/18 15:25:07;;;;;;;56.05;17.27;;;5.50;99.90;;;;;;4935448;28;92979;-81
2020/12/18 15:27:32;;;;;;;43.28;16.50;;;5.50;99.90;;;;;;4935891;28;92962;-80
2020/12/18 15:29:58;;;;;;;37.10;15.55;;;5.50;99.90;;;;;;4938982;28;92385;-81
2020/12/18 15:32:24;;;;;;;66.38;18.75;;;5.50;99.90;;;;;;4941970;28;92125;-78
2020/12/18 15:34:49;;;;;;;58.13;18.42;;;5.40;99.90;;;;;;4931142;28;92112;-79
2020/12/18 15:37:15;;;;;;;51.70;18.17;;;5.40;99.90;;;;;;4931929;28;91521;-79
2020/12/18 15:39:41;;;;;;;57.42;19.80;;;5.40;99.90;;;;;;4937191;28;91788;-81
2020/12/18 15:42:06;;;;;;;32.17;17.02;;;5.40;99.90;;;;;;4937716;28;91255;-78
2020/12/18 15:44:32;;;;;;;37.80;18.10;;;5.30;99.90;;;;;;4938349;28;91902;-78
2020/12/18 15:46:59;;;;;;;32.70;16.38;;;5.30;99.90;;;;;;4916129;28;94613;-80
2020/12/18 15:49:24;;;;;;;46.47;17.63;;;5.30;99.90;;;;;;4941860;28;92760;-80
2020/12/18 15:51:51;;;;;;;32.60;15.38;;;5.20;99.90;;;;;;4943816;28;91967;-79
2020/12/18 15:54:17;;;;;;;33.05;16.65;;;5.10;99.90;;;;;;4943341;28;93153;-80
2020/12/18 15:56:48;;;;;;;36.38;18.15;;;5.10;99.90;;;;;;4941155;28;91552;-81
2020/12/18 15:59:15;;;;;;;29.38;16.02;;;5.00;99.90;;;;;;4943728;28;91920;-81
2020/12/18 16:01:41;;;;;;;26.63;15.85;;;5.00;99.90;;;;;;4941229;28;92916;-80
2020/12/18 16:04:07;;;;;;;37.33;15.38;;;5.00;99.90;;;;;;4954327;28;92884;-80
2020/12/18 16:06:32;;;;;;;33.00;15.82;;;4.90;99.90;;;;;;4961482;28;92054;-79
2020/12/18 16:08:58;;;;;;;29.60;14.95;;;4.90;99.90;;;;;;4928890;28;91641;-78
2020/12/18 16:11:24;;;;;;;55.03;18.00;;;5.00;99.90;;;;;;4919475;28;92068;-78
2020/12/18 16:13:49;;;;;;;54.35;16.73;;;5.00;99.90;;;;;;4939839;28;94535;-80
2020/12/18 16:16:15;;;;;;;41.55;16.27;;;4.90;99.90;;;;;;4935967;28;92278;-79
2020/12/18 16:18:41;;;;;;;40.78;15.30;;;4.90;99.90;;;;;;4939006;28;91919;-78
2020/12/18 16:21:08;;;;;;;29.15;15.02;;;4.90;99.90;;;;;;4934604;28;91913;-79
2020/12/18 16:23:34;;;;;;;66.13;19.17;;;4.80;99.90;;;;;;4936042;28;92006;-79
2020/12/18 16:26:00;;;;;;;59.80;17.73;;;4.80;99.90;;;;;;4945282;28;93134;-77